Time;durP1;ratioP1;P1;durP2;ratioP2;P2;SDS_P1;SDS_P2;PMS_P1;PMS_P2;Temp;Humidity;BMP_temperature;BMP_pressure;BME280_temperature;BME280_humidity;BME280_pressure;Samples;Min_cycle;Max_cycle;Signal;HPM_P1;HPM_P2
2022/05/05 00:01:00;;;;;;;5.88;4.20;;;16.00;99.90;;;;;;5092860;28;20070;-88
2022/05/05 00:03:26;;;;;;;5.22;4.13;;;16.20;99.90;;;;;;5091964;28;20043;-87
2022/05/05 00:05:54;;;;;;;5.03;4.22;;;16.00;99.90;;;;;;5092586;28;20031;-87
2022/05/05 00:08:20;;;;;;;5.68;4.55;;;15.80;99.90;;;;;;5091344;28;20411;-88
2022/05/05 00:16:14;;;;;;;5.20;4.72;;;15.60;99.90;;;;;;5091047;28;20074;-87
2022/05/05 00:18:40;;;;;;;4.93;4.50;;;15.90;99.90;;;;;;5090658;28;20028;-87
2022/05/05 00:21:08;;;;;;;5.60;4.93;;;15.80;99.90;;;;;;5092218;28;20027;-87
2022/05/05 00:23:33;;;;;;;4.95;4.53;;;16.10;99.90;;;;;;5092120;28;20030;-87
2022/05/05 00:25:59;;;;;;;5.68;5.15;;;16.10;99.90;;;;;;5091216;28;20019;-87
2022/05/05 00:28:24;;;;;;;5.68;5.07;;;16.10;99.90;;;;;;5090496;28;20036;-87
2022/05/05 00:30:50;;;;;;;5.38;4.88;;;16.00;99.90;;;;;;5090981;28;20044;-87
2022/05/05 00:33:16;;;;;;;4.97;4.57;;;15.90;99.90;;;;;;5092217;28;20047;-87
2022/05/05 00:35:41;;;;;;;6.13;4.57;;;16.00;99.90;;;;;;5091652;28;20096;-87
2022/05/05 00:38:07;;;;;;;6.47;5.05;;;16.00;99.90;;;;;;5090830;28;20016;-87
2022/05/05 00:40:32;;;;;;;5.90;5.40;;;16.10;99.90;;;;;;5092277;28;20050;-87
2022/05/05 00:42:59;;;;;;;6.07;5.47;;;16.20;99.90;;;;;;5092497;28;20031;-87
2022/05/05 00:45:25;;;;;;;5.40;4.90;;;16.30;99.90;;;;;;5091607;28;20086;-87
2022/05/05 00:47:50;;;;;;;5.60;5.10;;;16.20;99.90;;;;;;5091454;28;20554;-87
2022/05/05 00:50:18;;;;;;;8.05;6.15;;;16.10;99.90;;;;;;5091732;28;20020;-87
2022/05/05 00:52:44;;;;;;;7.25;6.55;;;16.20;99.90;;;;;;5090408;28;20521;-87
2022/05/05 00:55:10;;;;;;;8.07;7.15;;;16.00;99.90;;;;;;5090574;28;20048;-87
2022/05/05 00:57:37;;;;;;;8.50;7.70;;;15.90;99.90;;;;;;5092155;28;20051;-88
2022/05/05 01:00:03;;;;;;;9.43;8.45;;;15.60;99.90;;;;;;5089688;28;20032;-87
2022/05/05 01:02:32;;;;;;;9.02;7.90;;;15.60;99.90;;;;;;5090081;28;20073;-87
2022/05/05 01:04:57;;;;;;;12.93;8.18;;;15.80;99.90;;;;;;5091411;28;20028;-87
2022/05/05 01:07:25;;;;;;;10.57;8.48;;;15.80;99.90;;;;;;5089975;28;20035;-87
2022/05/05 01:09:50;;;;;;;10.30;9.18;;;15.50;99.90;;;;;;5092370;28;20020;-87
2022/05/05 01:12:16;;;;;;;9.00;8.10;;;15.70;99.90;;;;;;5090100;28;20130;-87
2022/05/05 01:14:42;;;;;;;9.63;8.65;;;15.80;99.90;;;;;;5091179;28;20036;-87
2022/05/05 01:17:08;;;;;;;11.90;8.63;;;15.80;99.90;;;;;;5091533;28;20082;-87
2022/05/05 01:19:35;;;;;;;10.68;9.57;;;15.90;99.90;;;;;;5091487;28;20024;-87
2022/05/05 01:22:03;;;;;;;11.48;9.38;;;15.80;99.90;;;;;;5091530;28;20026;-87
2022/05/05 01:29:58;;;;;;;11.65;9.70;;;15.50;99.90;;;;;;5093230;28;20030;-87
2022/05/05 01:32:31;;;;;;;11.32;10.23;;;15.60;99.90;;;;;;5094108;28;20063;-87
2022/05/05 01:34:57;;;;;;;11.50;10.30;;;15.70;99.90;;;;;;5095282;28;20024;-87
2022/05/05 01:37:23;;;;;;;10.80;9.80;;;15.80;99.90;;;;;;5095494;28;20441;-87
2022/05/05 01:39:48;;;;;;;11.18;10.07;;;15.80;99.90;;;;;;5094279;28;20016;-87
2022/05/05 01:42:14;;;;;;;11.63;9.77;;;15.90;99.90;;;;;;5093476;28;20409;-87
2022/05/05 01:44:40;;;;;;;11.07;10.07;;;15.90;99.90;;;;;;5095163;28;20024;-88
2022/05/05 01:47:05;;;;;;;11.35;10.25;;;16.00;99.90;;;;;;5094813;28;20453;-87
2022/05/05 01:49:31;;;;;;;12.05;10.95;;;16.10;99.90;;;;;;5095029;28;20039;-87
2022/05/05 01:51:57;;;;;;;11.48;10.40;;;16.10;99.90;;;;;;5095706;28;20040;-87
2022/05/05 01:54:23;;;;;;;12.40;10.43;;;15.90;99.90;;;;;;5093119;28;20074;-87
2022/05/05 01:56:49;;;;;;;11.20;10.13;;;16.00;99.90;;;;;;5095161;28;20048;-87
2022/05/05 01:59:15;;;;;;;11.82;10.73;;;16.00;99.90;;;;;;5094872;28;20054;-87
2022/05/05 02:01:40;;;;;;;12.15;11.02;;;16.10;99.90;;;;;;5094710;28;20028;-87
2022/05/05 02:04:06;;;;;;;12.23;10.98;;;16.00;99.90;;;;;;5094984;28;20020;-87
2022/05/05 02:06:32;;;;;;;12.88;11.65;;;16.00;99.90;;;;;;5095502;28;20031;-88
2022/05/05 02:08:58;;;;;;;11.73;10.63;;;16.00;99.90;;;;;;5093662;28;20035;-87
2022/05/05 02:11:25;;;;;;;12.25;10.95;;;16.00;99.90;;;;;;5094155;28;20035;-87
2022/05/05 02:13:50;;;;;;;13.20;11.90;;;15.40;99.90;;;;;;5094518;28;20547;-87
2022/05/05 02:16:16;;;;;;;13.10;11.80;;;15.20;99.90;;;;;;5094486;28;20032;-87
2022/05/05 02:18:41;;;;;;;12.55;11.43;;;15.60;99.90;;;;;;5095115;28;20186;-88
2022/05/05 02:21:07;;;;;;;13.43;12.13;;;15.70;99.90;;;;;;5093995;28;20024;-87
2022/05/05 02:23:33;;;;;;;12.98;11.68;;;15.90;99.90;;;;;;5092965;28;20031;-87
2022/05/05 02:25:58;;;;;;;13.05;11.10;;;16.00;99.90;;;;;;5093877;28;20028;-88
2022/05/05 02:28:24;;;;;;;13.07;11.65;;;16.10;99.90;;;;;;5094389;28;20559;-87
2022/05/05 02:30:50;;;;;;;13.80;12.40;;;16.10;99.90;;;;;;5093462;28;20036;-87
2022/05/05 02:33:15;;;;;;;13.02;11.70;;;16.00;99.90;;;;;;5092792;28;20569;-88
2022/05/05 02:35:41;;;;;;;13.27;11.93;;;15.90;99.90;;;;;;5094127;28;20069;-87
2022/05/05 02:40:50;;;;;;;12.88;11.57;;;15.90;99.90;;;;;;5093756;28;20115;-88
2022/05/05 02:43:16;;;;;;;13.57;12.27;;;16.00;99.90;;;;;;5094200;28;20459;-87
2022/05/05 02:45:42;;;;;;;14.40;13.00;;;15.70;99.90;;;;;;5094564;28;20065;-87
2022/05/05 02:48:08;;;;;;;14.05;12.68;;;15.40;99.90;;;;;;5093940;28;20505;-87
2022/05/05 02:50:33;;;;;;;15.65;13.25;;;15.20;99.90;;;;;;5093889;28;20035;-87
2022/05/05 02:52:59;;;;;;;14.80;12.73;;;15.50;99.90;;;;;;5093860;28;20032;-87
2022/05/05 02:55:25;;;;;;;14.25;12.73;;;15.60;99.90;;;;;;5093418;28;20028;-87
2022/05/05 02:57:51;;;;;;;14.00;12.63;;;15.60;99.90;;;;;;5094552;28;20039;-87
2022/05/05 03:00:17;;;;;;;13.90;12.50;;;15.60;99.90;;;;;;5093791;28;20078;-87
2022/05/05 03:02:44;;;;;;;14.52;13.13;;;15.60;99.90;;;;;;5093451;28;20024;-87
2022/05/05 03:05:13;;;;;;;14.10;12.80;;;15.70;99.90;;;;;;5092417;28;20027;-87
2022/05/05 03:07:41;;;;;;;14.57;13.18;;;15.60;99.90;;;;;;5092182;28;20504;-87
2022/05/05 03:10:07;;;;;;;15.02;13.57;;;15.70;99.90;;;;;;5093217;28;20039;-87
2022/05/05 03:12:33;;;;;;;14.45;13.15;;;15.30;99.90;;;;;;5093724;28;20054;-87
2022/05/05 03:14:58;;;;;;;14.48;13.10;;;15.30;99.90;;;;;;5093434;28;20024;-87
2022/05/05 03:17:24;;;;;;;15.18;13.57;;;15.40;99.90;;;;;;5093296;28;20535;-87
2022/05/05 03:19:49;;;;;;;16.15;14.65;;;15.40;99.90;;;;;;5093237;28;20039;-87
2022/05/05 03:22:15;;;;;;;16.42;14.73;;;15.50;99.90;;;;;;5092132;28;20031;-87
2022/05/05 03:24:41;;;;;;;15.73;14.18;;;15.40;99.90;;;;;;5092429;28;20451;-87
2022/05/05 03:27:06;;;;;;;16.30;14.70;;;15.50;99.90;;;;;;5092833;28;20040;-87
2022/05/05 03:29:32;;;;;;;16.10;14.50;;;15.30;99.90;;;;;;5093066;28;20024;-87
2022/05/05 03:31:58;;;;;;;16.13;14.55;;;15.30;99.90;;;;;;5093490;28;20040;-87
2022/05/05 03:34:24;;;;;;;16.75;15.15;;;15.10;99.90;;;;;;5092836;28;20407;-87
2022/05/05 03:36:49;;;;;;;16.25;14.75;;;15.20;99.90;;;;;;5093593;28;20024;-87
2022/05/05 03:39:15;;;;;;;16.88;15.27;;;15.30;99.90;;;;;;5092626;28;20028;-87
2022/05/05 03:41:41;;;;;;;17.17;15.50;;;15.20;99.90;;;;;;5091285;28;20093;-87
2022/05/05 03:44:07;;;;;;;16.70;14.85;;;15.10;99.90;;;;;;5092727;28;20042;-87
2022/05/05 03:46:33;;;;;;;17.60;15.88;;;15.00;99.90;;;;;;5092696;28;20081;-87
2022/05/05 03:48:59;;;;;;;17.98;16.23;;;15.30;99.90;;;;;;5091927;28;20464;-87
2022/05/05 03:51:25;;;;;;;18.33;16.42;;;15.50;99.90;;;;;;5092567;28;20064;-87
2022/05/05 03:53:51;;;;;;;17.33;15.15;;;15.30;99.90;;;;;;5091923;28;20028;-87
2022/05/05 03:56:17;;;;;;;17.38;15.65;;;15.10;99.90;;;;;;5092642;28;20028;-87
2022/05/05 03:58:42;;;;;;;16.92;15.20;;;15.30;99.90;;;;;;5092502;28;20024;-87
2022/05/05 04:01:08;;;;;;;17.48;15.77;;;15.00;99.90;;;;;;5091413;28;20027;-87
2022/05/05 04:03:34;;;;;;;16.90;15.10;;;15.00;99.90;;;;;;5093260;28;20077;-87
2022/05/05 04:06:02;;;;;;;16.98;15.18;;;15.00;99.90;;;;;;5091051;28;20032;-87
2022/05/05 04:08:29;;;;;;;17.70;15.80;;;14.90;99.90;;;;;;5090671;28;20016;-87
2022/05/05 04:10:55;;;;;;;18.20;16.17;;;14.90;99.90;;;;;;5092604;28;20028;-87
2022/05/05 04:13:20;;;;;;;16.95;15.35;;;14.90;99.90;;;;;;5092159;28;20028;-87
2022/05/05 04:15:47;;;;;;;17.60;15.88;;;14.90;99.90;;;;;;5092705;28;20035;-87
2022/05/05 04:18:12;;;;;;;17.33;15.63;;;14.80;99.90;;;;;;5091810;28;20081;-87
2022/05/05 04:20:42;;;;;;;17.50;15.80;;;14.80;99.90;;;;;;5091885;28;20480;-87
2022/05/05 04:23:08;;;;;;;17.83;15.93;;;15.10;99.90;;;;;;5091678;28;20072;-87
2022/05/05 04:25:35;;;;;;;18.17;16.30;;;15.20;99.90;;;;;;5092407;28;20020;-87
2022/05/05 04:28:01;;;;;;;17.48;15.80;;;15.30;99.90;;;;;;5092115;28;20052;-87
2022/05/05 04:30:27;;;;;;;19.60;16.45;;;15.10;99.90;;;;;;5092167;28;20086;-87
2022/05/05 04:32:52;;;;;;;17.63;15.98;;;15.20;99.90;;;;;;5092017;28;20047;-87
2022/05/05 04:35:18;;;;;;;18.45;16.65;;;15.30;99.90;;;;;;5090587;28;20484;-87
2022/05/05 04:37:44;;;;;;;18.33;16.42;;;15.30;99.90;;;;;;5090497;28;20024;-87
2022/05/05 04:40:10;;;;;;;17.95;16.13;;;15.10;99.90;;;;;;5091941;28;20028;-87
2022/05/05 04:42:37;;;;;;;18.60;16.75;;;14.90;99.90;;;;;;5090935;28;20028;-87
2022/05/05 04:45:04;;;;;;;18.17;16.38;;;14.90;99.90;;;;;;5091921;28;20078;-87
2022/05/05 04:47:29;;;;;;;18.10;16.40;;;14.70;99.90;;;;;;5091453;28;20059;-87
2022/05/05 04:49:56;;;;;;;18.40;16.55;;;14.60;99.90;;;;;;5091643;28;20051;-87
2022/05/05 04:52:24;;;;;;;18.67;16.77;;;14.60;99.90;;;;;;5091198;28;20048;-86
2022/05/05 04:54:49;;;;;;;19.35;17.45;;;14.60;99.90;;;;;;5092004;28;20107;-87
2022/05/05 04:57:15;;;;;;;20.95;18.73;;;14.80;99.90;;;;;;5091333;28;20062;-87
2022/05/05 04:59:41;;;;;;;20.92;18.63;;;14.80;99.90;;;;;;5090089;28;20020;-87
2022/05/05 05:02:07;;;;;;;24.50;20.35;;;14.60;99.90;;;;;;5092066;28;20012;-87
2022/05/05 05:04:32;;;;;;;22.45;19.55;;;14.40;99.90;;;;;;5090940;28;20486;-87
2022/05/05 05:06:58;;;;;;;23.05;20.65;;;14.40;99.90;;;;;;5091900;28;20024;-87
2022/05/05 05:09:24;;;;;;;23.60;20.55;;;14.20;99.90;;;;;;5091293;28;20016;-87
2022/05/05 05:11:49;;;;;;;22.98;19.50;;;14.00;99.90;;;;;;5091579;28;20032;-87
2022/05/05 05:14:15;;;;;;;23.55;19.40;;;13.90;99.90;;;;;;5090168;28;20056;-87
2022/05/05 05:16:40;;;;;;;26.55;20.42;;;14.00;99.90;;;;;;5091979;28;20027;-87
2022/05/05 05:19:06;;;;;;;23.23;19.88;;;14.10;99.90;;;;;;5091769;28;20103;-87
2022/05/05 05:21:32;;;;;;;26.85;20.55;;;14.10;99.90;;;;;;5091551;28;20500;-87
2022/05/05 05:23:58;;;;;;;24.70;19.50;;;13.90;99.90;;;;;;5091212;28;20028;-87
2022/05/05 05:26:23;;;;;;;23.30;20.83;;;13.90;99.90;;;;;;5090109;28;20044;-86
2022/05/05 05:28:49;;;;;;;24.20;21.33;;;13.70;99.90;;;;;;5091939;28;20028;-87
2022/05/05 05:31:16;;;;;;;27.65;21.80;;;13.80;99.90;;;;;;5090812;28;20403;-87
2022/05/05 05:33:42;;;;;;;24.63;21.77;;;14.00;99.90;;;;;;5091728;28;20442;-87
2022/05/05 05:36:08;;;;;;;25.00;22.33;;;14.00;99.90;;;;;;5090870;28;20086;-87
2022/05/05 05:38:34;;;;;;;28.17;23.05;;;14.20;99.90;;;;;;5090861;28;20074;-87
2022/05/05 05:41:00;;;;;;;26.17;21.77;;;14.50;99.90;;;;;;5090009;28;20093;-87
2022/05/05 05:43:26;;;;;;;22.50;20.20;;;14.40;99.90;;;;;;5090875;28;20036;-87
2022/05/05 05:45:52;;;;;;;22.48;19.48;;;14.30;99.90;;;;;;5090372;28;20024;-87
2022/05/05 05:48:18;;;;;;;21.95;19.20;;;14.10;99.90;;;;;;5090935;28;20032;-87
2022/05/05 05:50:43;;;;;;;22.05;19.42;;;14.00;99.90;;;;;;5091418;28;20024;-87
2022/05/05 05:53:09;;;;;;;23.27;17.70;;;13.90;99.90;;;;;;5090789;28;20097;-86
2022/05/05 05:55:35;;;;;;;22.60;19.85;;;14.00;99.90;;;;;;5091012;28;20027;-87
2022/05/05 05:58:01;;;;;;;22.45;19.65;;;14.10;99.90;;;;;;5091229;28;20028;-87
2022/05/05 06:00:28;;;;;;;21.40;18.98;;;14.10;99.90;;;;;;5089674;28;20027;-87
2022/05/05 06:05:38;;;;;;;23.73;19.83;;;14.00;99.90;;;;;;5091180;28;20023;-87
2022/05/05 06:08:05;;;;;;;22.77;19.00;;;13.90;99.90;;;;;;5091162;28;20031;-87
2022/05/05 06:10:34;;;;;;;22.52;19.73;;;14.10;99.90;;;;;;5090645;28;20024;-86
2022/05/05 06:12:59;;;;;;;22.58;18.88;;;14.00;99.90;;;;;;5091254;28;20376;-87
2022/05/05 06:15:25;;;;;;;22.08;18.77;;;14.00;99.90;;;;;;5090705;28;20020;-87
2022/05/05 06:17:51;;;;;;;22.73;18.63;;;14.00;99.90;;;;;;5092612;28;20031;-87
2022/05/05 06:20:18;;;;;;;24.08;18.58;;;14.20;99.90;;;;;;5092899;28;20024;-86
2022/05/05 06:22:44;;;;;;;20.67;18.45;;;14.30;99.90;;;;;;5094657;28;20085;-87
2022/05/05 06:25:13;;;;;;;22.00;19.20;;;14.40;99.90;;;;;;5092800;28;20051;-88
2022/05/05 06:27:40;;;;;;;19.40;17.40;;;14.20;99.90;;;;;;5094491;28;20138;-87
2022/05/05 06:30:09;;;;;;;25.25;18.25;;;14.30;99.90;;;;;;5094309;28;20531;-87
2022/05/05 06:32:35;;;;;;;19.95;17.83;;;14.10;99.90;;;;;;5093640;28;20032;-87
2022/05/05 06:35:00;;;;;;;22.17;17.02;;;13.90;99.90;;;;;;5092636;28;20077;-87
2022/05/05 06:37:27;;;;;;;19.73;17.15;;;13.90;99.90;;;;;;5094429;28;20040;-94
2022/05/05 06:39:53;;;;;;;21.33;17.08;;;14.00;99.90;;;;;;5095823;28;20060;-87
2022/05/05 06:42:19;;;;;;;19.38;16.40;;;14.50;99.90;;;;;;5093638;28;20051;-87
2022/05/05 06:44:45;;;;;;;20.98;16.52;;;14.60;99.90;;;;;;5094184;28;20472;-87
2022/05/05 06:47:11;;;;;;;18.67;16.35;;;14.60;99.90;;;;;;5093479;28;20055;-86
2022/05/05 06:49:36;;;;;;;21.58;16.83;;;14.70;99.90;;;;;;5093929;28;20438;-86
2022/05/05 06:52:02;;;;;;;17.23;15.43;;;14.60;99.90;;;;;;5094076;28;20036;-86
2022/05/05 06:54:28;;;;;;;24.75;16.30;;;14.80;99.90;;;;;;5093490;28;20020;-87
2022/05/05 06:56:56;;;;;;;20.17;15.57;;;14.70;99.90;;;;;;5093609;28;20182;-86
2022/05/05 06:59:22;;;;;;;17.60;15.73;;;14.90;99.90;;;;;;5093632;28;22282;-87
2022/05/05 07:02:01;;;;;;;19.42;15.68;;;14.90;99.90;;;;;;5093231;28;20155;-86
2022/05/05 07:07:13;;;;;;;18.10;15.10;;;14.90;99.90;;;;;;5091733;28;20123;-87
2022/05/05 07:12:25;;;;;;;17.02;14.88;;;14.80;99.90;;;;;;5093331;28;20549;-86
2022/05/05 07:14:51;;;;;;;17.38;14.68;;;14.70;99.90;;;;;;5093161;28;20016;-86
2022/05/05 07:17:16;;;;;;;18.30;14.75;;;14.80;99.90;;;;;;5092774;28;20039;-86
2022/05/05 07:19:42;;;;;;;19.13;14.82;;;14.70;99.90;;;;;;5093366;28;20022;-86
2022/05/05 07:22:08;;;;;;;16.92;14.90;;;14.70;99.90;;;;;;5093848;28;20024;-86
2022/05/05 07:24:34;;;;;;;17.23;15.00;;;14.70;99.90;;;;;;5092267;28;20024;-87
2022/05/05 07:27:02;;;;;;;19.90;14.88;;;15.00;99.90;;;;;;5090478;28;20190;-86
2022/05/05 07:29:28;;;;;;;19.02;14.98;;;14.90;99.90;;;;;;5091868;28;20027;-87
2022/05/05 07:31:54;;;;;;;16.58;14.63;;;15.10;99.90;;;;;;5092318;28;20496;-87
2022/05/05 07:34:19;;;;;;;18.55;15.15;;;15.00;99.90;;;;;;5092977;28;20032;-87
2022/05/05 07:36:46;;;;;;;19.02;14.02;;;15.20;99.90;;;;;;5093736;28;20028;-86
2022/05/05 07:39:12;;;;;;;17.65;13.77;;;15.30;99.90;;;;;;5092714;28;20518;-86
2022/05/05 07:41:38;;;;;;;16.17;13.65;;;15.40;99.90;;;;;;5092616;28;20032;-87
2022/05/05 07:44:05;;;;;;;15.23;13.60;;;15.30;99.90;;;;;;5092602;28;20487;-87
2022/05/05 07:46:32;;;;;;;15.38;13.82;;;15.30;99.90;;;;;;5092662;28;20023;-86
2022/05/05 07:48:58;;;;;;;16.60;14.63;;;15.50;99.90;;;;;;5093576;28;20111;-86
2022/05/05 07:51:24;;;;;;;15.00;13.35;;;15.50;99.90;;;;;;5092597;28;20479;-87
2022/05/05 07:56:34;;;;;;;15.77;12.98;;;15.60;99.90;;;;;;5092222;28;20395;-86
2022/05/05 07:59:00;;;;;;;15.25;13.65;;;15.60;99.90;;;;;;5092351;28;20121;-87
2022/05/05 08:01:26;;;;;;;14.82;13.27;;;15.70;99.90;;;;;;5092558;28;20059;-86
2022/05/05 08:03:52;;;;;;;15.93;12.95;;;15.70;99.90;;;;;;5093287;28;20036;-86
2022/05/05 08:06:18;;;;;;;15.13;13.13;;;15.70;99.90;;;;;;5092195;28;20031;-87
2022/05/05 08:08:43;;;;;;;19.27;13.77;;;15.90;99.90;;;;;;5091046;28;20032;-87
2022/05/05 08:11:09;;;;;;;15.45;13.18;;;15.90;99.90;;;;;;5090644;28;20024;-87
2022/05/05 08:13:35;;;;;;;16.48;13.25;;;15.90;99.90;;;;;;5092273;28;20040;-87
2022/05/05 08:16:01;;;;;;;17.00;13.88;;;15.80;99.90;;;;;;5092433;28;20030;-87
2022/05/05 08:18:27;;;;;;;15.82;13.30;;;15.90;99.90;;;;;;5092421;28;20052;-87
2022/05/05 08:20:53;;;;;;;15.65;13.10;;;15.70;99.90;;;;;;5092076;28;20066;-87
2022/05/05 08:23:19;;;;;;;15.23;13.63;;;15.70;99.90;;;;;;5091998;28;20494;-87
2022/05/05 08:28:29;;;;;;;14.02;12.63;;;15.90;99.90;;;;;;5075950;28;20400;-87
2022/05/05 08:30:56;;;;;;;16.92;12.82;;;15.80;99.90;;;;;;5092504;28;20016;-87
2022/05/05 08:33:24;;;;;;;14.15;12.65;;;15.80;99.90;;;;;;5091635;28;20409;-87
2022/05/05 08:35:50;;;;;;;14.98;13.38;;;15.80;99.90;;;;;;5091626;28;20051;-87
2022/05/05 08:38:17;;;;;;;15.25;13.02;;;15.80;99.90;;;;;;5091476;28;20484;-87
2022/05/05 08:40:43;;;;;;;15.30;12.98;;;15.90;99.90;;;;;;5091894;28;20467;-87
2022/05/05 08:43:09;;;;;;;14.15;12.65;;;16.20;99.90;;;;;;5091726;28;20032;-87
2022/05/05 08:45:37;;;;;;;19.05;12.73;;;16.30;99.90;;;;;;5092249;28;20024;-87
2022/05/05 08:48:08;;;;;;;15.68;13.48;;;16.30;99.90;;;;;;5091503;28;20122;-87
2022/05/05 08:50:35;;;;;;;17.10;12.73;;;16.60;99.90;;;;;;5091564;28;20031;-87
2022/05/05 08:53:02;;;;;;;14.98;11.85;;;16.50;99.90;;;;;;5091739;28;20035;-86
2022/05/05 08:55:29;;;;;;;15.13;12.73;;;16.40;99.90;;;;;;5076047;28;20020;-86
2022/05/05 08:57:55;;;;;;;17.15;12.50;;;16.30;99.90;;;;;;5091853;28;20091;-86
2022/05/05 09:00:21;;;;;;;13.27;11.25;;;16.50;99.90;;;;;;5091295;28;20081;-86
2022/05/05 09:02:54;;;;;;;12.90;11.55;;;16.70;99.90;;;;;;5091401;28;20024;-86
2022/05/05 09:05:44;;;;;;;14.15;11.43;;;16.60;99.90;;;;;;5090226;28;20484;-86
2022/05/05 09:08:25;;;;;;;13.57;10.57;;;16.60;99.90;;;;;;5091820;28;20027;-85
2022/05/05 09:10:52;;;;;;;12.23;10.57;;;16.90;99.90;;;;;;5091396;28;20146;-86
2022/05/05 09:13:37;;;;;;;12.25;10.80;;;16.90;99.90;;;;;;5089836;28;20032;-86
2022/05/05 09:16:05;;;;;;;11.35;9.70;;;17.10;99.90;;;;;;5088797;28;20061;-86
2022/05/05 09:18:34;;;;;;;14.15;10.77;;;17.10;99.90;;;;;;5091401;28;20034;-86
2022/05/05 09:21:03;;;;;;;12.68;10.90;;;17.40;99.90;;;;;;5091270;28;20030;-86
2022/05/05 09:26:28;;;;;;;13.82;10.13;;;17.40;99.90;;;;;;5090662;28;20047;-85
2022/05/05 09:28:55;;;;;;;12.30;9.82;;;17.60;99.90;;;;;;5091499;28;20051;-86
2022/05/05 09:31:22;;;;;;;14.60;10.05;;;17.60;99.90;;;;;;5091291;28;20033;-86
2022/05/05 09:33:48;;;;;;;12.50;10.38;;;17.60;99.90;;;;;;5091874;28;20062;-86
2022/05/05 09:36:15;;;;;;;13.45;10.18;;;17.70;99.90;;;;;;5091114;28;20020;-86
2022/05/05 09:38:52;;;;;;;16.13;9.70;;;17.80;99.90;;;;;;5091241;28;20046;-86
2022/05/05 09:41:18;;;;;;;10.77;9.68;;;18.10;99.90;;;;;;5090679;28;20028;-86
2022/05/05 09:43:44;;;;;;;10.50;9.15;;;17.80;99.90;;;;;;5091268;28;20365;-86
2022/05/05 09:46:30;;;;;;;11.05;9.40;;;17.80;99.90;;;;;;5091477;28;20085;-86
2022/05/05 09:49:11;;;;;;;10.02;8.90;;;17.50;99.90;;;;;;5087502;28;20097;-85
2022/05/05 09:51:40;;;;;;;12.55;9.82;;;17.70;99.90;;;;;;5093796;28;20063;-86
2022/05/05 09:59:47;;;;;;;10.30;9.15;;;17.60;99.90;;;;;;5095033;28;20156;-86
2022/05/05 10:05:17;;;;;;;12.65;9.60;;;17.70;99.90;;;;;;5095080;28;20067;-85
2022/05/05 10:07:45;;;;;;;10.65;9.50;;;17.80;99.90;;;;;;5094641;28;20405;-86
2022/05/05 10:10:13;;;;;;;13.35;9.98;;;18.00;99.90;;;;;;5094524;28;20024;-86
2022/05/05 10:12:39;;;;;;;11.48;10.27;;;17.90;99.90;;;;;;5094831;28;20043;-86
2022/05/05 10:15:06;;;;;;;13.07;9.98;;;17.90;99.90;;;;;;5093255;28;20024;-86
2022/05/05 10:17:34;;;;;;;11.20;9.55;;;17.90;99.90;;;;;;5094182;28;20024;-86
2022/05/05 10:20:00;;;;;;;13.50;9.32;;;17.90;99.90;;;;;;5094266;28;20027;-86
2022/05/05 10:22:37;;;;;;;13.27;9.63;;;18.10;99.90;;;;;;5094425;28;20404;-86
2022/05/05 10:25:13;;;;;;;10.65;9.38;;;18.20;99.90;;;;;;5090714;28;20085;-86
2022/05/05 10:27:44;;;;;;;10.93;9.60;;;18.30;99.90;;;;;;5093949;28;20185;-86
2022/05/05 10:30:36;;;;;;;11.55;9.68;;;18.10;99.90;;;;;;5093727;28;20157;-86
2022/05/05 10:33:08;;;;;;;10.38;9.30;;;18.00;99.90;;;;;;5094232;28;20032;-86
2022/05/05 10:35:47;;;;;;;13.30;10.60;;;18.10;99.90;;;;;;5094001;28;20157;-86
2022/05/05 10:38:39;;;;;;;13.50;9.93;;;17.90;99.90;;;;;;5094071;28;20028;-86
2022/05/05 10:41:37;;;;;;;12.65;10.32;;;18.50;99.90;;;;;;5094263;28;20024;-85
2022/05/05 10:44:18;;;;;;;13.18;10.55;;;18.80;99.90;;;;;;5094216;28;20032;-86
2022/05/05 10:46:53;;;;;;;11.68;9.90;;;19.00;99.90;;;;;;5078415;28;20032;-86
2022/05/05 10:49:48;;;;;;;15.55;10.05;;;19.30;99.90;;;;;;5093683;28;20024;-86
2022/05/05 10:52:26;;;;;;;13.68;9.52;;;19.00;99.90;;;;;;5094603;28;20052;-86
2022/05/05 10:54:54;;;;;;;13.35;10.02;;;19.20;99.90;;;;;;5093476;28;20106;-86
2022/05/05 10:57:25;;;;;;;12.13;9.40;;;19.40;99.90;;;;;;5093867;28;20070;-86
2022/05/05 11:00:11;;;;;;;9.95;8.95;;;19.80;99.90;;;;;;5093350;28;20028;-86
2022/05/05 11:02:39;;;;;;;12.90;8.93;;;19.90;99.90;;;;;;5092725;28;20030;-86
2022/05/05 11:05:20;;;;;;;10.35;8.05;;;19.70;99.90;;;;;;5093319;28;20027;-86
2022/05/05 11:07:49;;;;;;;11.02;8.43;;;19.80;99.90;;;;;;5092976;28;20028;-86
2022/05/05 11:10:37;;;;;;;12.30;7.97;;;19.70;99.90;;;;;;5093646;28;20024;-86
2022/05/05 11:13:02;;;;;;;9.77;8.30;;;19.60;99.90;;;;;;5093736;28;20044;-86
2022/05/05 11:21:32;;;;;;;9.98;7.78;;;19.70;99.90;;;;;;5093163;28;20067;-86
2022/05/05 11:23:59;;;;;;;8.90;8.00;;;20.40;99.90;;;;;;5092981;28;20391;-86
2022/05/05 11:26:27;;;;;;;9.25;8.00;;;20.80;99.90;;;;;;5092864;28;20062;-86
2022/05/05 11:28:53;;;;;;;10.88;7.93;;;21.20;99.90;;;;;;5093060;28;20135;-86
2022/05/05 11:31:24;;;;;;;9.32;7.75;;;20.70;99.90;;;;;;5093235;28;20130;-86
2022/05/05 11:33:55;;;;;;;10.95;7.90;;;20.60;99.90;;;;;;5089726;28;20442;-86
2022/05/05 11:36:25;;;;;;;9.90;8.10;;;21.40;99.90;;;;;;5092539;28;20093;-86
2022/05/05 11:38:51;;;;;;;11.80;8.52;;;22.00;99.90;;;;;;5092889;28;20028;-86
2022/05/05 11:41:21;;;;;;;9.38;8.02;;;22.40;99.90;;;;;;5092752;28;20121;-86
2022/05/05 11:46:32;;;;;;;8.70;7.78;;;22.00;99.90;;;;;;5077645;28;20066;-86
2022/05/05 11:48:58;;;;;;;8.95;8.02;;;22.70;99.90;;;;;;5088620;28;20047;-86
2022/05/05 11:51:29;;;;;;;8.98;7.93;;;22.30;99.90;;;;;;5092601;28;20028;-86
2022/05/05 11:53:59;;;;;;;8.80;7.72;;;22.90;99.90;;;;;;5092602;28;20016;-86
2022/05/05 11:56:28;;;;;;;10.38;7.75;;;22.40;99.90;;;;;;5092476;28;20028;-86
2022/05/05 12:01:42;;;;;;;9.18;7.90;;;23.30;99.90;;;;;;5077547;28;20392;-86
2022/05/05 12:04:10;;;;;;;8.50;7.60;;;22.30;99.90;;;;;;5092718;28;20039;-86
2022/05/05 12:06:38;;;;;;;8.45;7.63;;;22.00;99.90;;;;;;5091774;28;20575;-86
2022/05/05 12:09:07;;;;;;;8.52;7.60;;;22.00;99.90;;;;;;5092602;28;20023;-86
2022/05/05 12:11:32;;;;;;;9.05;6.75;;;22.00;99.90;;;;;;5092097;28;20496;-86
2022/05/05 12:14:00;;;;;;;7.20;6.45;;;23.00;99.90;;;;;;5091722;28;20073;-86
2022/05/05 12:16:31;;;;;;;8.55;7.18;;;22.80;99.90;;;;;;5092115;28;20023;-86
2022/05/05 12:18:56;;;;;;;8.68;7.20;;;23.00;99.90;;;;;;5093104;28;20020;-86
2022/05/05 12:21:26;;;;;;;7.50;6.80;;;23.70;99.90;;;;;;5092008;28;20043;-86
2022/05/05 12:23:58;;;;;;;7.00;6.30;;;23.50;99.90;;;;;;5092029;28;20111;-86
2022/05/05 12:26:30;;;;;;;5.25;3.17;;;23.20;99.90;;;;;;5091695;28;20036;-87
2022/05/05 12:28:56;;;;;;;3.03;2.70;;;22.30;99.90;;;;;;5091948;28;20498;-86
2022/05/05 12:31:23;;;;;;;3.88;2.95;;;22.10;99.90;;;;;;5091849;28;20126;-86
2022/05/05 12:33:49;;;;;;;3.20;2.92;;;21.20;99.90;;;;;;5092522;28;20115;-86
2022/05/05 12:36:16;;;;;;;3.97;3.20;;;20.30;99.90;;;;;;5090419;28;20020;-87
2022/05/05 12:38:42;;;;;;;4.30;2.90;;;19.90;99.90;;;;;;5091727;28;20031;-86
2022/05/05 12:41:08;;;;;;;3.13;2.83;;;19.90;99.90;;;;;;5092008;28;20492;-86
2022/05/05 12:43:34;;;;;;;6.57;3.50;;;19.60;99.90;;;;;;5091799;28;20073;-86
2022/05/05 12:46:04;;;;;;;5.32;3.70;;;19.40;99.90;;;;;;5091303;28;20127;-86
2022/05/05 12:48:31;;;;;;;4.95;4.13;;;19.40;99.90;;;;;;5091482;28;20032;-86
2022/05/05 12:50:57;;;;;;;6.60;4.25;;;19.20;99.90;;;;;;5091457;28;20024;-86
2022/05/05 13:01:54;;;;;;;5.75;4.18;;;18.90;99.90;;;;;;5078009;28;20031;-87
2022/05/05 13:04:20;;;;;;;6.43;4.32;;;19.20;99.90;;;;;;5091375;28;20020;-86
2022/05/05 13:06:48;;;;;;;5.18;3.33;;;18.90;99.90;;;;;;5092128;28;20424;-86
2022/05/05 13:09:14;;;;;;;3.72;3.42;;;18.90;99.90;;;;;;5091084;28;20028;-86
2022/05/05 13:11:44;;;;;;;4.30;3.90;;;18.80;99.90;;;;;;5091327;28;20576;-86
2022/05/05 13:14:10;;;;;;;4.38;3.50;;;18.80;99.90;;;;;;5091576;28;20085;-86
2022/05/05 13:16:36;;;;;;;4.20;3.60;;;19.40;99.90;;;;;;5091348;28;20480;-86
2022/05/05 13:19:05;;;;;;;4.25;3.30;;;19.80;99.90;;;;;;5091422;28;20028;-86
2022/05/05 13:21:41;;;;;;;5.43;3.35;;;20.60;99.90;;;;;;5091185;28;20412;-86
2022/05/05 13:24:08;;;;;;;4.05;3.42;;;21.00;99.90;;;;;;5091424;28;20028;-86
2022/05/05 13:26:36;;;;;;;3.42;2.92;;;20.40;99.90;;;;;;5093775;28;20040;-86
2022/05/05 13:29:01;;;;;;;3.00;2.80;;;20.30;99.90;;;;;;5095362;28;20028;-86
2022/05/05 13:31:27;;;;;;;3.70;3.40;;;20.40;99.90;;;;;;5095434;28;20073;-87
2022/05/05 13:33:53;;;;;;;4.85;2.92;;;20.00;99.90;;;;;;5094401;28;20059;-86